Time,TemperatureF,DewpointF,PressureIn,WindDirection,WindDirectionDegrees,WindSpeedMPH,WindSpeedGustMPH,Humidity,HourlyPrecipIn,Conditions,Clouds,dailyrainin,SoftwareType,DateUTC
2013-09-05 00:13:00,60.0,57.0,30.12,SW,232,0.0,0.0,91,0.00,,,0.00,,2013-09-05 04:13:00,
2013-09-05 00:24:00,59.0,57.0,30.12,SW,232,0.0,0.0,93,0.00,,,0.00,,2013-09-05 04:24:00,
2013-09-05 00:44:00,60.0,57.0,30.11,SW,232,0.0,1.0,91,0.00,,,0.00,,2013-09-05 04:44:00,
2013-09-05 00:53:00,60.0,57.0,30.11,SW,232,0.0,0.0,90,0.00,,,0.00,,2013-09-05 04:53:00,
2013-09-05 01:12:00,59.0,56.0,30.11,SW,232,0.0,0.0,90,0.00,,,0.00,,2013-09-05 05:12:00,
2013-09-05 01:23:00,59.0,57.0,30.11,SW,232,0.0,0.0,92,0.00,,,0.00,,2013-09-05 05:23:00,
2013-09-05 01:43:00,59.0,57.0,30.11,SW,232,0.0,0.0,93,0.00,,,0.00,,2013-09-05 05:43:00,
2013-09-05 01:52:00,59.0,57.0,30.12,SW,232,0.0,0.0,93,0.00,,,0.00,,2013-09-05 05:52:00,
2013-09-05 02:12:00,58.0,56.0,30.12,SW,232,0.0,0.0,92,0.00,,,0.00,,2013-09-05 06:12:00,
2013-09-05 02:22:00,57.0,55.0,30.12,SW,232,0.0,0.0,92,0.00,,,0.00,,2013-09-05 06:22:00,
2013-09-05 02:52:00,58.0,56.0,30.12,SW,232,0.0,0.0,94,0.00,,,0.00,,2013-09-05 06:52:00,
2013-09-05 03:12:00,57.0,55.0,30.13,SW,232,0.0,0.0,94,0.00,,,0.00,,2013-09-05 07:12:00,
2013-09-05 03:23:00,57.0,55.0,30.13,SW,232,0.0,0.0,94,0.00,,,0.00,,2013-09-05 07:23:00,
2013-09-05 03:42:00,57.0,56.0,30.13,SW,232,0.0,0.0,95,0.00,,,0.00,,2013-09-05 07:42:00,
2013-09-05 03:52:00,57.0,56.0,30.13,SW,232,0.0,0.0,95,0.00,,,0.00,,2013-09-05 07:52:00,
2013-09-05 04:12:00,58.0,57.0,30.13,SW,232,0.0,0.0,95,0.00,,,0.00,,2013-09-05 08:12:00,
2013-09-05 04:22:00,58.0,56.0,30.13,SW,232,0.0,0.0,94,0.00,,,0.00,,2013-09-05 08:22:00,
2013-09-05 04:42:00,58.0,56.0,30.14,SW,232,0.0,0.0,93,0.00,,,0.00,,2013-09-05 08:42:00,
2013-09-05 04:52:00,59.0,58.0,30.14,SW,232,0.0,1.0,95,0.00,,,0.00,,2013-09-05 08:52:00,
2013-09-05 05:11:00,60.0,58.0,30.14,SW,232,0.0,1.0,92,0.00,,,0.00,,2013-09-05 09:11:00,
2013-09-05 05:22:00,61.0,58.0,30.13,SW,232,0.0,2.0,91,0.00,,,0.00,,2013-09-05 09:22:00,
2013-09-05 05:43:00,61.0,57.0,30.14,SW,232,0.0,2.0,88,0.00,,,0.00,,2013-09-05 09:43:00,
2013-09-05 05:53:00,60.0,57.0,30.14,SW,232,0.0,1.0,90,0.00,,,0.00,,2013-09-05 09:53:00,
2013-09-05 06:12:00,59.0,56.0,30.14,SW,232,0.0,1.0,91,0.00,,,0.00,,2013-09-05 10:12:00,
2013-09-05 06:23:00,60.0,57.0,30.14,SW,232,0.0,1.0,91,0.00,,,0.00,,2013-09-05 10:23:00,
2013-09-05 06:43:00,60.0,57.0,30.14,SW,232,0.0,2.0,91,0.00,,,0.00,,2013-09-05 10:43:00,
2013-09-05 06:53:00,60.0,57.0,30.14,SW,236,0.0,4.0,91,0.00,,,0.00,,2013-09-05 10:53:00,
2013-09-05 07:12:00,60.0,57.0,30.15,SW,236,0.0,2.0,90,0.00,,,0.00,,2013-09-05 11:12:00,
2013-09-05 07:22:00,60.0,57.0,30.15,SW,236,0.0,1.0,89,0.00,,,0.00,,2013-09-05 11:22:00,
2013-09-05 07:42:00,58.0,56.0,30.16,SW,236,0.0,0.0,92,0.00,,,0.00,,2013-09-05 11:42:00,
2013-09-05 07:52:00,58.0,56.0,30.16,SW,236,0.0,0.0,92,0.00,,,0.00,,2013-09-05 11:52:00,
2013-09-05 08:12:00,57.0,55.0,30.16,SW,236,0.0,0.0,92,0.00,,,0.00,,2013-09-05 12:12:00,
2013-09-05 08:21:00,58.0,57.0,30.16,SW,236,0.0,0.0,95,0.00,,,0.00,,2013-09-05 12:21:00,
2013-09-05 08:42:00,59.0,58.0,30.16,SW,236,0.0,0.0,95,0.00,,,0.00,,2013-09-05 12:42:00,
2013-09-05 08:52:00,60.0,59.0,30.17,SW,236,0.0,1.0,95,0.00,,,0.00,,2013-09-05 12:52:00,
2013-09-05 09:12:00,62.0,60.0,30.17,SW,236,0.0,0.0,94,0.00,,,0.00,,2013-09-05 13:12:00,
2013-09-05 09:21:00,65.0,62.0,30.17,WSW,241,0.0,3.0,91,0.00,,,0.00,,2013-09-05 13:21:00,
2013-09-05 09:42:00,67.0,63.0,30.17,WNW,302,1.0,3.0,86,0.00,,,0.00,,2013-09-05 13:42:00,
2013-09-05 09:53:00,68.0,63.0,30.17,NNE,14,1.0,4.0,83,0.00,,,0.00,,2013-09-05 13:53:00,
2013-09-05 10:12:00,69.0,63.0,30.17,NNE,15,0.0,3.0,80,0.00,,,0.00,,2013-09-05 14:12:00,
2013-09-05 10:22:00,70.0,64.0,30.18,NNE,17,1.0,4.0,80,0.00,,,0.00,,2013-09-05 14:22:00,
2013-09-05 10:42:00,71.0,63.0,30.19,NNE,22,4.0,8.0,75,0.00,,,0.00,,2013-09-05 14:42:00,
2013-09-05 10:52:00,71.0,63.0,30.19,NE,45,4.0,8.0,75,0.00,,,0.00,,2013-09-05 14:52:00,
2013-09-05 11:11:00,71.0,63.0,30.18,ENE,71,3.0,7.0,75,0.00,,,0.00,,2013-09-05 15:11:00,
2013-09-05 11:22:00,73.0,63.0,30.19,East,90,4.0,7.0,71,0.00,,,0.00,,2013-09-05 15:22:00,
2013-09-05 11:44:00,74.0,64.0,30.19,NNE,28,2.0,7.0,70,0.00,,,0.00,,2013-09-05 15:44:00,
2013-09-05 11:54:00,74.0,64.0,30.18,NNE,30,1.0,5.0,70,0.00,,,0.00,,2013-09-05 15:54:00,
2013-09-05 12:13:00,74.0,63.0,30.19,NNE,32,2.0,6.0,68,0.00,,,0.00,,2013-09-05 16:13:00,
2013-09-05 12:24:00,75.0,62.0,30.19,East,80,2.0,5.0,65,0.00,,,0.00,,2013-09-05 16:24:00,
2013-09-05 12:43:00,77.0,63.0,30.19,ENE,74,2.0,7.0,62,0.00,,,0.00,,2013-09-05 16:43:00,
2013-09-05 12:54:00,77.0,62.0,30.19,East,92,2.0,7.0,60,0.00,,,0.00,,2013-09-05 16:54:00,
2013-09-05 13:12:00,77.0,62.0,30.19,NE,50,2.0,6.0,60,0.00,,,0.00,,2013-09-05 17:12:00,
2013-09-05 13:23:00,79.0,64.0,30.19,NE,56,5.0,9.0,61,0.00,,,0.00,,2013-09-05 17:23:00,
2013-09-05 13:43:00,79.0,64.0,30.18,NE,44,3.0,6.0,60,0.00,,,0.00,,2013-09-05 17:43:00,
2013-09-05 13:52:00,79.0,62.0,30.18,East,90,0.0,6.0,57,0.00,,,0.00,,2013-09-05 17:52:00,
2013-09-05 14:12:00,80.0,63.0,30.18,WNW,284,0.0,7.0,56,0.00,,,0.00,,2013-09-05 18:12:00,
2013-09-05 14:22:00,81.0,63.0,30.17,NW,306,2.0,9.0,55,0.00,,,0.00,,2013-09-05 18:22:00,
2013-09-05 14:52:00,81.0,63.0,30.17,NE,46,3.0,7.0,55,0.00,,,0.00,,2013-09-05 18:52:00,
2013-09-05 15:11:00,82.0,64.0,30.16,NW,320,2.0,8.0,54,0.00,,,0.00,,2013-09-05 19:11:00,
2013-09-05 15:22:00,82.0,64.0,30.16,NNE,15,2.0,6.0,54,0.00,,,0.00,,2013-09-05 19:22:00,
2013-09-05 15:42:00,82.0,64.0,30.16,East,94,3.0,8.0,55,0.00,,,0.00,,2013-09-05 19:42:00,
2013-09-05 15:52:00,82.0,64.0,30.16,ENE,65,2.0,9.0,55,0.00,,,0.00,,2013-09-05 19:52:00,
2013-09-05 16:11:00,82.0,65.0,30.15,NE,50,4.0,9.0,57,0.00,,,0.00,,2013-09-05 20:11:00,
2013-09-05 16:22:00,82.0,65.0,30.15,NE,34,0.0,7.0,57,0.00,,,0.00,,2013-09-05 20:22:00,
2013-09-05 16:52:00,82.0,65.0,30.15,NNE,15,2.0,7.0,56,0.00,,,0.00,,2013-09-05 20:52:00,
2013-09-05 17:12:00,82.0,65.0,30.14,NNE,19,4.0,7.0,57,0.00,,,0.00,,2013-09-05 21:12:00,
2013-09-05 17:21:00,82.0,66.0,30.14,NNW,341,0.0,5.0,58,0.00,,,0.00,,2013-09-05 21:21:00,
2013-09-05 17:54:00,82.0,66.0,30.14,NNE,13,1.0,5.0,59,0.00,,,0.00,,2013-09-05 21:54:00,
2013-09-05 18:13:00,82.0,66.0,30.15,NNE,13,5.0,8.0,59,0.00,,,0.00,,2013-09-05 22:13:00,
2013-09-05 18:24:00,80.0,66.0,30.15,NNE,32,3.0,7.0,62,0.00,,,0.00,,2013-09-05 22:24:00,
2013-09-05 18:53:00,80.0,66.0,30.14,North,9,3.0,5.0,62,0.00,,,0.00,,2013-09-05 22:53:00,
2013-09-05 19:12:00,80.0,65.0,30.14,North,11,3.0,7.0,61,0.00,,,0.00,,2013-09-05 23:12:00,
2013-09-05 19:22:00,79.0,65.0,30.14,NE,48,2.0,7.0,62,0.00,,,0.00,,2013-09-05 23:22:00,
2013-09-05 19:53:00,76.0,63.0,30.14,NE,50,2.0,5.0,64,0.00,,,0.00,,2013-09-05 23:53:00,
2013-09-05 20:12:00,75.0,62.0,30.14,NE,36,2.0,5.0,65,0.00,,,0.00,,2013-09-06 00:12:00,
2013-09-05 20:22:00,73.0,62.0,30.14,NE,35,0.0,2.0,69,0.00,,,0.00,,2013-09-06 00:22:00,
2013-09-05 21:52:00,66.0,60.0,30.16,NE,35,0.0,0.0,82,0.00,,,0.00,,2013-09-06 01:52:00,
2013-09-05 22:02:00,66.0,60.0,30.16,NE,35,0.0,0.0,82,0.00,,,0.00,,2013-09-06 02:02:00,
2013-09-05 22:11:00,66.0,60.0,30.16,NE,35,0.0,0.0,82,0.00,,,0.00,,2013-09-06 02:11:00,
2013-09-05 22:22:00,65.0,60.0,30.17,NE,35,0.0,1.0,83,0.00,,,0.00,,2013-09-06 02:22:00,
2013-09-05 22:42:00,64.0,59.0,30.17,NE,35,0.0,0.0,83,0.00,,,0.00,,2013-09-06 02:42:00,
2013-09-05 22:52:00,64.0,59.0,30.17,NE,35,0.0,1.0,83,0.00,,,0.00,,2013-09-06 02:52:00,
2013-09-05 23:11:00,63.0,58.0,30.18,NE,35,0.0,1.0,83,0.00,,,0.00,,2013-09-06 03:11:00,
2013-09-05 23:22:00,63.0,58.0,30.18,NE,35,0.0,2.0,83,0.00,,,0.00,,2013-09-06 03:22:00,
2013-09-05 23:55:00,62.0,56.0,30.18,NE,35,0.0,1.0,80,0.00,,,0.00,,2013-09-06 03:55:00,